Impacts TAF Board
For situational awareness. Not to be used for flight planning purposes.
IDs:

KICT - Wichita/Eisenhower A, KS, US

Issued at 1127 UTC 10 Aug 2022
Updated at 1406 UTC 10 Aug 2022
Potential Impact None Slight Moderate High
Time1353Z 10/15Z 10/16Z 10/17Z 10/18Z 10/19Z 10/20Z 10/21Z 10/22Z 10/23Z 11/00Z 11/01Z 11/02Z 11/03Z>>
Type OBS PRVL PRVL PRVL PRVL PRVL PRVL PRVL PRVL PRVL PRVL PRVL PRVL PRVL
VIS 10 >6 >6 >6 >6 >6 >6 >6 >6 >6 >6 >6 >6 >6
CIG -- -- -- -- -- -- -- -- -- -- -- -- -- --
Cover FEW SKC SKC SKC SKC SKC SKC SKC SKC SKC SKC SKC SKC SKC
FltCat VFR VFR VFR VFR VFR VFR VFR VFR VFR VFR VFR VFR VFR VFR
WX -- -- -- -- -- -- -- -- -- -- -- -- -- --
WDir 80 90 60 60 60 60 60 60 60 60 60 60 60 80
WSpd 6 6 7 7 7 7 7 7 7 7 7 7 7 5
WGst -- -- -- -- -- -- -- -- -- -- -- -- -- --
WSHgt -- -- -- -- -- -- -- -- -- -- -- -- -- --
WSDir -- -- -- -- -- -- -- -- -- -- -- -- -- --
WSSpd -- -- -- -- -- -- -- -- -- -- -- -- -- --
Raw TAF
KICT 101127Z 1012/1112 06004KT P6SM SKC
  FM101400 09006KT P6SM SKC
  FM101600 06007KT P6SM SKC
  FM110300 08005KT P6SM SKC


Raw METAR
KICT 101353Z 08006KT 10SM FEW220 25/20 A3017 RMK AO2 SLP199 T02500200
KICT 101253Z 07007KT 10SM FEW220 23/20 A3016 RMK AO2 SLP196 T02280200
KICT 101153Z 07006KT 10SM FEW250 22/19 A3014 RMK AO2 SLP191 T02170194 10250 20217 53013 $

METAR Board
Radar Display
Forecast Discussion
For situational awareness. Not to be used for flight planning purposes.